sensor_id;sensor_type;location;lat;lon;timestamp;pressure;altitude;pressure_sealevel;temperature;humidity
62031;BME280;62035;52.094;5.112;2023-05-11T00:00:39;101572.63;;;14.74;100.00
62031;BME280;62035;52.094;5.112;2023-05-11T00:03:07;101556.81;;;14.62;100.00
62031;BME280;62035;52.094;5.112;2023-05-11T00:05:35;101565.91;;;14.70;100.00
62031;BME280;62035;52.094;5.112;2023-05-11T00:08:02;101564.22;;;14.68;100.00
62031;BME280;62035;52.094;5.112;2023-05-11T00:10:30;101555.13;;;14.61;100.00
62031;BME280;62035;52.094;5.112;2023-05-11T00:12:59;101558.44;;;14.55;100.00
62031;BME280;62035;52.094;5.112;2023-05-11T00:15:26;101557.22;;;14.50;100.00
62031;BME280;62035;52.094;5.112;2023-05-11T00:17:54;101551.63;;;14.61;100.00
62031;BME280;62035;52.094;5.112;2023-05-11T00:20:22;101550.56;;;14.54;100.00
62031;BME280;62035;52.094;5.112;2023-05-11T00:22:49;101554.78;;;14.56;100.00
62031;BME280;62035;52.094;5.112;2023-05-11T00:25:17;101550.56;;;14.54;100.00
62031;BME280;62035;52.094;5.112;2023-05-11T00:27:44;101550.78;;;14.60;100.00
62031;BME280;62035;52.094;5.112;2023-05-11T00:30:14;101555.09;;;14.53;100.00
62031;BME280;62035;52.094;5.112;2023-05-11T00:32:42;101565.28;;;14.32;100.00
62031;BME280;62035;52.094;5.112;2023-05-11T00:35:10;101564.75;;;14.46;100.00
62031;BME280;62035;52.094;5.112;2023-05-11T00:37:38;101568.84;;;14.58;100.00
62031;BME280;62035;52.094;5.112;2023-05-11T00:40:06;101559.38;;;14.46;100.00
62031;BME280;62035;52.094;5.112;2023-05-11T00:42:34;101564.75;;;14.46;100.00
62031;BME280;62035;52.094;5.112;2023-05-11T00:45:02;101569.81;;;14.31;100.00
62031;BME280;62035;52.094;5.112;2023-05-11T00:47:32;101564.53;;;14.22;100.00
62031;BME280;62035;52.094;5.112;2023-05-11T00:49:59;101571.56;;;14.23;100.00
62031;BME280;62035;52.094;5.112;2023-05-11T00:52:27;101573.94;;;14.26;100.00
62031;BME280;62035;52.094;5.112;2023-05-11T00:54:56;101561.56;;;14.25;100.00
62031;BME280;62035;52.094;5.112;2023-05-11T00:57:24;101562.84;;;14.21;100.00
62031;BME280;62035;52.094;5.112;2023-05-11T00:59:51;101564.84;;;14.01;100.00
62031;BME280;62035;52.094;5.112;2023-05-11T01:02:19;101566.84;;;13.81;100.00
62031;BME280;62035;52.094;5.112;2023-05-11T01:04:48;101560.28;;;13.76;100.00
62031;BME280;62035;52.094;5.112;2023-05-11T01:07:22;101550.19;;;13.69;100.00
62031;BME280;62035;52.094;5.112;2023-05-11T01:09:58;101559.75;;;13.72;100.00
62031;BME280;62035;52.094;5.112;2023-05-11T01:12:42;101559.50;;;13.65;100.00
62031;BME280;62035;52.094;5.112;2023-05-11T01:15:17;101557.28;;;13.61;100.00
62031;BME280;62035;52.094;5.112;2023-05-11T01:18:14;101564.06;;;13.38;100.00
62031;BME280;62035;52.094;5.112;2023-05-11T01:20:52;101561.25;;;13.39;100.00
62031;BME280;62035;52.094;5.112;2023-05-11T01:23:57;101568.53;;;13.64;100.00
62031;BME280;62035;52.094;5.112;2023-05-11T01:26:51;101564.50;;;13.78;100.00
62031;BME280;62035;52.094;5.112;2023-05-11T01:30:15;101570.31;;;13.91;100.00
62031;BME280;62035;52.094;5.112;2023-05-11T01:32:52;101569.34;;;14.00;100.00
62031;BME280;62035;52.094;5.112;2023-05-11T01:35:24;101575.78;;;14.08;100.00
62031;BME280;62035;52.094;5.112;2023-05-11T01:37:55;101568.91;;;14.05;100.00
62031;BME280;62035;52.094;5.112;2023-05-11T01:40:27;101564.69;;;14.02;100.00
62031;BME280;62035;52.094;5.112;2023-05-11T01:43:00;101560.50;;;14.00;100.00
62031;BME280;62035;52.094;5.112;2023-05-11T01:45:36;101551.31;;;14.02;100.00
62031;BME280;62035;52.094;5.112;2023-05-11T01:48:11;101565.88;;;13.82;100.00
62031;BME280;62035;52.094;5.112;2023-05-11T01:50:43;101567.78;;;13.72;100.00
62031;BME280;62035;52.094;5.112;2023-05-11T01:53:13;101576.34;;;13.76;100.00
62031;BME280;62035;52.094;5.112;2023-05-11T01:55:44;101571.28;;;13.73;100.00
62031;BME280;62035;52.094;5.112;2023-05-11T01:58:14;101578.16;;;13.57;100.00
62031;BME280;62035;52.094;5.112;2023-05-11T02:00:46;101583.91;;;13.80;100.00
62031;BME280;62035;52.094;5.112;2023-05-11T02:03:14;101582.84;;;13.91;100.00
62031;BME280;62035;52.094;5.112;2023-05-11T02:05:45;101580.59;;;14.04;100.00
62031;BME280;62035;52.094;5.112;2023-05-11T02:08:15;101580.53;;;14.14;100.00
62031;BME280;62035;52.094;5.112;2023-05-11T02:10:45;101570.97;;;14.11;100.00
62031;BME280;62035;52.094;5.112;2023-05-11T02:13:17;101565.69;;;14.01;100.00
62031;BME280;62035;52.094;5.112;2023-05-11T02:15:50;101577.72;;;13.97;100.00
62031;BME280;62035;52.094;5.112;2023-05-11T02:18:21;101578.22;;;14.01;100.00
62031;BME280;62035;52.094;5.112;2023-05-11T02:20:49;101587.34;;;14.08;100.00
62031;BME280;62035;52.094;5.112;2023-05-11T02:23:18;101580.06;;;14.00;100.00
62031;BME280;62035;52.094;5.112;2023-05-11T02:25:51;101589.34;;;13.88;100.00
62031;BME280;62035;52.094;5.112;2023-05-11T02:28:19;101590.56;;;13.94;100.00
62031;BME280;62035;52.094;5.112;2023-05-11T02:30:52;101589.31;;;14.06;100.00
62031;BME280;62035;52.094;5.112;2023-05-11T02:33:26;101585.41;;;14.00;100.00
62031;BME280;62035;52.094;5.112;2023-05-11T02:35:58;101592.91;;;14.15;100.00
62031;BME280;62035;52.094;5.112;2023-05-11T02:38:29;101589.19;;;13.90;100.00
62031;BME280;62035;52.094;5.112;2023-05-11T02:41:03;101585.66;;;13.89;100.00
62031;BME280;62035;52.094;5.112;2023-05-11T02:43:35;101583.75;;;13.99;100.00
62031;BME280;62035;52.094;5.112;2023-05-11T02:46:10;101582.75;;;14.00;100.00
62031;BME280;62035;52.094;5.112;2023-05-11T02:48:44;101584.81;;;14.07;100.00
62031;BME280;62035;52.094;5.112;2023-05-11T02:51:16;101586.91;;;13.95;100.00
62031;BME280;62035;52.094;5.112;2023-05-11T02:53:48;101582.22;;;14.15;100.00
62031;BME280;62035;52.094;5.112;2023-05-11T02:56:22;101585.56;;;14.17;100.00
62031;BME280;62035;52.094;5.112;2023-05-11T02:58:50;101587.09;;;14.01;100.00
62031;BME280;62035;52.094;5.112;2023-05-11T03:01:19;101583.00;;;13.89;100.00
62031;BME280;62035;52.094;5.112;2023-05-11T03:03:47;101592.09;;;13.96;100.00
62031;BME280;62035;52.094;5.112;2023-05-11T03:06:14;101589.94;;;14.00;100.00
62031;BME280;62035;52.094;5.112;2023-05-11T03:08:42;101590.28;;;13.97;100.00
62031;BME280;62035;52.094;5.112;2023-05-11T03:11:10;101580.91;;;14.01;100.00
62031;BME280;62035;52.094;5.112;2023-05-11T03:13:40;101589.63;;;14.03;100.00
62031;BME280;62035;52.094;5.112;2023-05-11T03:16:10;101578.56;;;13.98;100.00
62031;BME280;62035;52.094;5.112;2023-05-11T03:18:40;101595.16;;;13.84;100.00
62031;BME280;62035;52.094;5.112;2023-05-11T03:21:09;101583.06;;;13.80;100.00
62031;BME280;62035;52.094;5.112;2023-05-11T03:23:38;101584.97;;;13.87;100.00
62031;BME280;62035;52.094;5.112;2023-05-11T03:26:08;101583.75;;;13.99;100.00
62031;BME280;62035;52.094;5.112;2023-05-11T03:28:39;101582.13;;;14.07;100.00
62031;BME280;62035;52.094;5.112;2023-05-11T03:31:10;101575.84;;;14.16;100.00
62031;BME280;62035;52.094;5.112;2023-05-11T03:33:37;101570.13;;;14.11;100.00
62031;BME280;62035;52.094;5.112;2023-05-11T03:36:08;101576.09;;;14.05;100.00
62031;BME280;62035;52.094;5.112;2023-05-11T03:38:37;101563.66;;;13.95;100.00
62031;BME280;62035;52.094;5.112;2023-05-11T03:41:06;101566.94;;;13.89;100.00
62031;BME280;62035;52.094;5.112;2023-05-11T03:43:34;101558.16;;;13.79;100.00
62031;BME280;62035;52.094;5.112;2023-05-11T03:46:04;101563.88;;;13.84;100.00
62031;BME280;62035;52.094;5.112;2023-05-11T03:48:33;101557.63;;;13.93;100.00
62031;BME280;62035;52.094;5.112;2023-05-11T03:51:03;101557.78;;;13.92;100.00
62031;BME280;62035;52.094;5.112;2023-05-11T03:53:32;101552.19;;;13.85;100.00
62031;BME280;62035;52.094;5.112;2023-05-11T03:56:02;101554.47;;;13.80;100.00
62031;BME280;62035;52.094;5.112;2023-05-11T03:58:32;101555.41;;;13.89;100.00
62031;BME280;62035;52.094;5.112;2023-05-11T04:01:03;101558.31;;;13.95;100.00
62031;BME280;62035;52.094;5.112;2023-05-11T04:03:33;101560.69;;;13.98;100.00
62031;BME280;62035;52.094;5.112;2023-05-11T04:06:01;101557.91;;;13.90;100.00
62031;BME280;62035;52.094;5.112;2023-05-11T04:08:29;101556.84;;;13.83;100.00
62031;BME280;62035;52.094;5.112;2023-05-11T04:10:58;101562.59;;;13.88;100.00
62031;BME280;62035;52.094;5.112;2023-05-11T04:13:25;101565.19;;;13.98;100.00
62031;BME280;62035;52.094;5.112;2023-05-11T04:15:53;101575.06;;;13.97;100.00
62031;BME280;62035;52.094;5.112;2023-05-11T04:18:20;101565.69;;;14.01;100.00
62031;BME280;62035;52.094;5.112;2023-05-11T04:20:48;101569.97;;;14.12;100.00
62031;BME280;62035;52.094;5.112;2023-05-11T04:23:15;101577.47;;;14.26;100.00
62031;BME280;62035;52.094;5.112;2023-05-11T04:25:43;101572.72;;;14.38;100.00
62031;BME280;62035;52.094;5.112;2023-05-11T04:28:12;101580.44;;;14.41;100.00
62031;BME280;62035;52.094;5.112;2023-05-11T04:30:40;101578.06;;;14.38;100.00
62031;BME280;62035;52.094;5.112;2023-05-11T04:33:07;101579.13;;;14.45;100.00
62031;BME280;62035;52.094;5.112;2023-05-11T04:35:38;101574.81;;;14.52;100.00
62031;BME280;62035;52.094;5.112;2023-05-11T04:38:05;101577.44;;;14.44;100.00
62031;BME280;62035;52.094;5.112;2023-05-11T04:40:34;101577.78;;;14.67;100.00
62031;BME280;62035;52.094;5.112;2023-05-11T04:43:02;101583.28;;;14.65;100.00
62031;BME280;62035;52.094;5.112;2023-05-11T04:45:31;101576.00;;;14.76;100.00
62031;BME280;62035;52.094;5.112;2023-05-11T04:47:58;101575.09;;;14.67;100.00
62031;BME280;62035;52.094;5.112;2023-05-11T04:50:26;101586.72;;;14.84;100.00
62031;BME280;62035;52.094;5.112;2023-05-11T04:52:53;101589.91;;;14.79;100.00
62031;BME280;62035;52.094;5.112;2023-05-11T04:55:21;101599.13;;;14.85;100.00
62031;BME280;62035;52.094;5.112;2023-05-11T04:57:49;101594.25;;;15.06;100.00
62031;BME280;62035;52.094;5.112;2023-05-11T05:00:17;101590.16;;;14.94;100.00
62031;BME280;62035;52.094;5.112;2023-05-11T05:02:47;101589.16;;;14.95;100.00
62031;BME280;62035;52.094;5.112;2023-05-11T05:05:15;101587.53;;;15.02;100.00
62031;BME280;62035;52.094;5.112;2023-05-11T05:07:43;101592.50;;;14.97;100.00
62031;BME280;62035;52.094;5.112;2023-05-11T05:10:11;101597.91;;;15.05;100.00
62031;BME280;62035;52.094;5.112;2023-05-11T05:12:38;101599.59;;;14.80;100.00
62031;BME280;62035;52.094;5.112;2023-05-11T05:15:07;101610.59;;;14.95;100.00
62031;BME280;62035;52.094;5.112;2023-05-11T05:17:35;101608.13;;;15.01;100.00
62031;BME280;62035;52.094;5.112;2023-05-11T05:20:05;101606.81;;;15.06;100.00
62031;BME280;62035;52.094;5.112;2023-05-11T05:22:34;101604.56;;;14.93;100.00
62031;BME280;62035;52.094;5.112;2023-05-11T05:25:01;101609.84;;;14.77;100.00
62031;BME280;62035;52.094;5.112;2023-05-11T05:27:29;101609.78;;;14.68;100.00
62031;BME280;62035;52.094;5.112;2023-05-11T05:29:58;101620.13;;;14.63;100.00
62031;BME280;62035;52.094;5.112;2023-05-11T05:32:25;101623.47;;;14.65;100.00
62031;BME280;62035;52.094;5.112;2023-05-11T05:34:53;101620.31;;;14.96;100.00
62031;BME280;62035;52.094;5.112;2023-05-11T05:37:22;101617.78;;;14.94;100.00
62031;BME280;62035;52.094;5.112;2023-05-11T05:39:49;101617.63;;;14.96;100.00
62031;BME280;62035;52.094;5.112;2023-05-11T05:42:17;101623.47;;;15.25;100.00
62031;BME280;62035;52.094;5.112;2023-05-11T05:44:44;101621.09;;;15.14;100.00
62031;BME280;62035;52.094;5.112;2023-05-11T05:47:12;101623.78;;;15.22;100.00
62031;BME280;62035;52.094;5.112;2023-05-11T05:49:39;101627.31;;;15.23;100.00
62031;BME280;62035;52.094;5.112;2023-05-11T05:52:08;101627.31;;;15.23;100.00
62031;BME280;62035;52.094;5.112;2023-05-11T05:54:38;101633.84;;;15.54;100.00
62031;BME280;62035;52.094;5.112;2023-05-11T05:57:05;101620.22;;;15.48;100.00
62031;BME280;62035;52.094;5.112;2023-05-11T05:59:33;101630.69;;;15.59;100.00
62031;BME280;62035;52.094;5.112;2023-05-11T06:02:00;101631.19;;;15.62;100.00
62031;BME280;62035;52.094;5.112;2023-05-11T06:04:28;101620.34;;;15.80;100.00
62031;BME280;62035;52.094;5.112;2023-05-11T06:06:56;101623.38;;;15.85;100.00
62031;BME280;62035;52.094;5.112;2023-05-11T06:09:25;101628.06;;;15.83;100.00
62031;BME280;62035;52.094;5.112;2023-05-11T06:11:54;101621.13;;;15.64;100.00
62031;BME280;62035;52.094;5.112;2023-05-11T06:14:22;101603.88;;;15.67;100.00
62031;BME280;62035;52.094;5.112;2023-05-11T06:16:49;101621.53;;;15.86;100.00
62031;BME280;62035;52.094;5.112;2023-05-11T06:19:18;101629.09;;;15.90;100.00
62031;BME280;62035;52.094;5.112;2023-05-11T06:21:46;101629.91;;;15.83;100.00
62031;BME280;62035;52.094;5.112;2023-05-11T06:24:13;101633.81;;;16.05;100.00
62031;BME280;62035;52.094;5.112;2023-05-11T06:26:41;101634.63;;;15.89;100.00
62031;BME280;62035;52.094;5.112;2023-05-11T06:29:10;101641.00;;;15.88;100.00
62031;BME280;62035;52.094;5.112;2023-05-11T06:31:37;101644.03;;;16.01;100.00
62031;BME280;62035;52.094;5.112;2023-05-11T06:34:05;101641.56;;;16.48;100.00
62031;BME280;62035;52.094;5.112;2023-05-11T06:36:34;101630.78;;;16.97;100.00
62031;BME280;62035;52.094;5.112;2023-05-11T06:39:01;101622.88;;;17.04;100.00
62031;BME280;62035;52.094;5.112;2023-05-11T06:41:30;101629.84;;;17.21;100.00
62031;BME280;62035;52.094;5.112;2023-05-11T06:43:57;101630.16;;;16.71;100.00
62031;BME280;62035;52.094;5.112;2023-05-11T06:46:27;101634.81;;;16.93;100.00
62031;BME280;62035;52.094;5.112;2023-05-11T06:48:54;101622.19;;;17.02;100.00
62031;BME280;62035;52.094;5.112;2023-05-11T06:51:22;101627.22;;;17.05;100.00
62031;BME280;62035;52.094;5.112;2023-05-11T06:53:49;101637.47;;;17.17;100.00
62031;BME280;62035;52.094;5.112;2023-05-11T06:56:17;101633.19;;;17.31;100.00
62031;BME280;62035;52.094;5.112;2023-05-11T06:58:44;101640.06;;;17.33;100.00
62031;BME280;62035;52.094;5.112;2023-05-11T07:01:12;101630.63;;;17.38;100.00
62031;BME280;62035;52.094;5.112;2023-05-11T07:03:41;101626.72;;;17.09;100.00
62031;BME280;62035;52.094;5.112;2023-05-11T07:06:08;101630.06;;;17.19;100.00
62031;BME280;62035;52.094;5.112;2023-05-11T07:08:36;101632.75;;;17.19;100.00
62031;BME280;62035;52.094;5.112;2023-05-11T07:11:04;101639.50;;;16.99;100.00
62031;BME280;62035;52.094;5.112;2023-05-11T07:13:31;101643.53;;;17.03;100.00
62031;BME280;62035;52.094;5.112;2023-05-11T07:15:59;101634.66;;;16.94;100.00
62031;BME280;62035;52.094;5.112;2023-05-11T07:18:27;101637.16;;;17.04;100.00
62031;BME280;62035;52.094;5.112;2023-05-11T07:20:56;101641.72;;;16.87;100.00
62031;BME280;62035;52.094;5.112;2023-05-11T07:23:24;101636.81;;;16.99;100.00
62031;BME280;62035;52.094;5.112;2023-05-11T07:25:51;101624.97;;;17.24;100.00
62031;BME280;62035;52.094;5.112;2023-05-11T07:28:22;101638.03;;;17.44;100.00
62031;BME280;62035;52.094;5.112;2023-05-11T07:30:50;101634.63;;;17.50;100.00
62031;BME280;62035;52.094;5.112;2023-05-11T07:33:17;101625.72;;;17.49;100.00
62031;BME280;62035;52.094;5.112;2023-05-11T07:35:45;101636.72;;;17.71;100.00
62031;BME280;62035;52.094;5.112;2023-05-11T07:38:14;101632.00;;;17.73;100.00
62031;BME280;62035;52.094;5.112;2023-05-11T07:40:42;101634.09;;;18.16;100.00
62031;BME280;62035;52.094;5.112;2023-05-11T07:43:09;101629.53;;;17.94;100.00
62031;BME280;62035;52.094;5.112;2023-05-11T07:45:37;101640.53;;;18.07;100.00
62031;BME280;62035;52.094;5.112;2023-05-11T07:48:05;101639.19;;;18.34;100.00
62031;BME280;62035;52.094;5.112;2023-05-11T07:50:33;101628.28;;;18.27;100.00
62031;BME280;62035;52.094;5.112;2023-05-11T07:53:00;101637.00;;;18.52;100.00
62031;BME280;62035;52.094;5.112;2023-05-11T07:55:30;101623.50;;;18.52;100.00
62031;BME280;62035;52.094;5.112;2023-05-11T07:57:58;101621.13;;;18.57;100.00
62031;BME280;62035;52.094;5.112;2023-05-11T08:00:25;101630.81;;;18.29;100.00
62031;BME280;62035;52.094;5.112;2023-05-11T08:02:53;101628.34;;;18.19;100.00
62031;BME280;62035;52.094;5.112;2023-05-11T08:05:21;101634.44;;;18.13;100.00
62031;BME280;62035;52.094;5.112;2023-05-11T08:07:49;101640.84;;;17.89;100.00
62031;BME280;62035;52.094;5.112;2023-05-11T08:10:17;101639.69;;;17.84;100.00
62031;BME280;62035;52.094;5.112;2023-05-11T08:12:46;101641.00;;;17.57;100.00
62031;BME280;62035;52.094;5.112;2023-05-11T08:15:13;101634.59;;;17.58;100.00
62031;BME280;62035;52.094;5.112;2023-05-11T08:17:41;101644.38;;;17.51;100.00
62031;BME280;62035;52.094;5.112;2023-05-11T08:20:11;101642.34;;;17.92;100.00
62031;BME280;62035;52.094;5.112;2023-05-11T08:22:39;101643.31;;;17.99;100.00
62031;BME280;62035;52.094;5.112;2023-05-11T08:25:08;101638.28;;;17.96;100.00
62031;BME280;62035;52.094;5.112;2023-05-11T08:27:36;101644.31;;;18.21;100.00
62031;BME280;62035;52.094;5.112;2023-05-11T08:30:06;101643.09;;;18.46;100.00
62031;BME280;62035;52.094;5.112;2023-05-11T08:32:35;101635.59;;;18.79;100.00
62031;BME280;62035;52.094;5.112;2023-05-11T08:35:03;101637.50;;;19.08;100.00
62031;BME280;62035;52.094;5.112;2023-05-11T08:37:31;101642.78;;;19.31;100.00
62031;BME280;62035;52.094;5.112;2023-05-11T08:39:59;101637.84;;;19.20;100.00
62031;BME280;62035;52.094;5.112;2023-05-11T08:42:28;101641.00;;;19.38;100.00
62031;BME280;62035;52.094;5.112;2023-05-11T08:45:00;101632.84;;;19.17;100.00
62031;BME280;62035;52.094;5.112;2023-05-11T08:47:30;101633.66;;;19.47;100.00
62031;BME280;62035;52.094;5.112;2023-05-11T08:49:58;101630.13;;;19.97;100.00
62031;BME280;62035;52.094;5.112;2023-05-11T08:52:26;101629.19;;;19.90;100.00
62031;BME280;62035;52.094;5.112;2023-05-11T08:54:53;101627.53;;;20.31;100.00
62031;BME280;62035;52.094;5.112;2023-05-11T08:57:21;101626.03;;;20.08;100.00
62031;BME280;62035;52.094;5.112;2023-05-11T08:59:50;101628.00;;;20.35;100.00
62031;BME280;62035;52.094;5.112;2023-05-11T09:02:20;101620.66;;;20.08;100.00
62031;BME280;62035;52.094;5.112;2023-05-11T09:04:53;101632.56;;;19.92;100.00
62031;BME280;62035;52.094;5.112;2023-05-11T09:07:21;101621.03;;;20.05;100.00
62031;BME280;62035;52.094;5.112;2023-05-11T09:09:52;101614.81;;;20.25;100.00
62031;BME280;62035;52.094;5.112;2023-05-11T09:12:19;101615.75;;;20.18;100.00
62031;BME280;62035;52.094;5.112;2023-05-11T09:14:51;101615.25;;;20.08;100.00
62031;BME280;62035;52.094;5.112;2023-05-11T09:17:18;101620.84;;;20.06;100.00
62031;BME280;62035;52.094;5.112;2023-05-11T09:20:02;101630.03;;;19.90;100.00
62031;BME280;62035;52.094;5.112;2023-05-11T09:22:31;101625.78;;;20.03;100.00
62031;BME280;62035;52.094;5.112;2023-05-11T09:25:00;101628.50;;;19.67;100.00
62031;BME280;62035;52.094;5.112;2023-05-11T09:27:28;101628.75;;;19.86;100.00
62031;BME280;62035;52.094;5.112;2023-05-11T09:30:09;101620.16;;;19.97;100.00
62031;BME280;62035;52.094;5.112;2023-05-11T09:32:48;101628.50;;;20.03;100.00
62031;BME280;62035;52.094;5.112;2023-05-11T09:35:20;101625.94;;;20.37;100.00
62031;BME280;62035;52.094;5.112;2023-05-11T09:38:00;101597.75;;;20.25;100.00
62031;BME280;62035;52.094;5.112;2023-05-11T09:40:30;101619.16;;;20.26;100.00
62031;BME280;62035;52.094;5.112;2023-05-11T09:42:59;101620.41;;;20.45;100.00
62031;BME280;62035;52.094;5.112;2023-05-11T09:45:34;101621.16;;;20.60;100.00
62031;BME280;62035;52.094;5.112;2023-05-11T09:48:03;101619.09;;;20.41;100.00
62031;BME280;62035;52.094;5.112;2023-05-11T09:50:34;101619.41;;;20.81;100.00
62031;BME280;62035;52.094;5.112;2023-05-11T09:53:02;101617.91;;;20.72;100.00
62031;BME280;62035;52.094;5.112;2023-05-11T09:55:30;101612.13;;;20.75;100.00
62031;BME280;62035;52.094;5.112;2023-05-11T09:57:58;101616.94;;;21.14;100.00
62031;BME280;62035;52.094;5.112;2023-05-11T10:00:27;101616.25;;;21.05;100.00
62031;BME280;62035;52.094;5.112;2023-05-11T10:02:58;101622.56;;;21.53;100.00
62031;BME280;62035;52.094;5.112;2023-05-11T10:05:28;101620.53;;;21.21;100.00
62031;BME280;62035;52.094;5.112;2023-05-11T10:08:00;101620.16;;;20.96;100.00
62031;BME280;62035;52.094;5.112;2023-05-11T10:10:30;101615.94;;;20.87;100.00
62031;BME280;62035;52.094;5.112;2023-05-11T10:13:00;101609.97;;;20.98;100.00
62031;BME280;62035;52.094;5.112;2023-05-11T10:15:31;101614.00;;;20.81;100.00
62031;BME280;62035;52.094;5.112;2023-05-11T10:18:01;101610.16;;;20.96;100.00
62031;BME280;62035;52.094;5.112;2023-05-11T10:20:29;101610.06;;;21.11;100.00
62031;BME280;62035;52.094;5.112;2023-05-11T10:22:59;101612.19;;;21.70;100.00
62031;BME280;62035;52.094;5.112;2023-05-11T10:25:27;101616.38;;;21.73;100.00
62031;BME280;62035;52.094;5.112;2023-05-11T10:27:56;101613.75;;;21.38;100.00
62031;BME280;62035;52.094;5.112;2023-05-11T10:30:24;101610.59;;;21.95;100.00
62031;BME280;62035;52.094;5.112;2023-05-11T10:32:54;101610.84;;;22.14;100.00
62031;BME280;62035;52.094;5.112;2023-05-11T10:35:22;101601.91;;;22.13;100.00
62031;BME280;62035;52.094;5.112;2023-05-11T10:37:50;101606.66;;;21.98;100.00
62031;BME280;62035;52.094;5.112;2023-05-11T10:40:19;101602.88;;;21.92;100.00
62031;BME280;62035;52.094;5.112;2023-05-11T10:43:07;101598.09;;;21.88;100.00
62031;BME280;62035;52.094;5.112;2023-05-11T10:45:52;101609.75;;;21.88;100.00
62031;BME280;62035;52.094;5.112;2023-05-11T10:48:40;101603.84;;;21.65;100.00
62031;BME280;62035;52.094;5.112;2023-05-11T10:54:31;101607.44;;;21.24;100.00
62031;BME280;62035;52.094;5.112;2023-05-11T10:57:24;101612.16;;;21.16;100.00
62031;BME280;62035;52.094;5.112;2023-05-11T11:00:20;101613.94;;;21.02;100.00
62031;BME280;62035;52.094;5.112;2023-05-11T11:03:13;101611.63;;;21.34;100.00
62031;BME280;62035;52.094;5.112;2023-05-11T11:05:41;101614.59;;;21.39;100.00
62031;BME280;62035;52.094;5.112;2023-05-11T11:08:10;101617.28;;;20.70;100.00
62031;BME280;62035;52.094;5.112;2023-05-11T11:10:39;101618.13;;;20.49;100.00
62031;BME280;62035;52.094;5.112;2023-05-11T11:13:13;101624.06;;;19.95;100.00
62031;BME280;62035;52.094;5.112;2023-05-11T11:16:10;101627.50;;;19.23;100.00
62031;BME280;62035;52.094;5.112;2023-05-11T11:18:38;101625.91;;;18.47;100.00
62031;BME280;62035;52.094;5.112;2023-05-11T11:21:05;101621.81;;;18.37;100.00
62031;BME280;62035;52.094;5.112;2023-05-11T11:23:43;101623.75;;;18.43;100.00
62031;BME280;62035;52.094;5.112;2023-05-11T11:26:15;101627.97;;;18.22;100.00
62031;BME280;62035;52.094;5.112;2023-05-11T11:29:09;101634.09;;;18.16;100.00
62031;BME280;62035;52.094;5.112;2023-05-11T11:31:38;101634.22;;;18.23;100.00
62031;BME280;62035;52.094;5.112;2023-05-11T11:34:31;101632.28;;;18.09;100.00
62031;BME280;62035;52.094;5.112;2023-05-11T11:37:03;101639.53;;;18.31;100.00
62031;BME280;62035;52.094;5.112;2023-05-11T11:39:52;101633.31;;;18.08;100.00
62031;BME280;62035;52.094;5.112;2023-05-11T11:42:34;101638.47;;;17.94;100.00
62031;BME280;62035;52.094;5.112;2023-05-11T11:45:29;101646.31;;;17.73;100.00
62031;BME280;62035;52.094;5.112;2023-05-11T11:48:12;101649.63;;;17.44;100.00
62031;BME280;62035;52.094;5.112;2023-05-11T11:50:43;101656.47;;;17.55;100.00
62031;BME280;62035;52.094;5.112;2023-05-11T11:56:42;101666.91;;;17.58;100.00
62031;BME280;62035;52.094;5.112;2023-05-11T11:59:11;101660.06;;;17.39;100.00
62031;BME280;62035;52.094;5.112;2023-05-11T12:01:42;101664.59;;;17.47;100.00
62031;BME280;62035;52.094;5.112;2023-05-11T12:04:49;101669.72;;;17.17;100.00
62031;BME280;62035;52.094;5.112;2023-05-11T12:07:19;101683.88;;;17.03;100.00
62031;BME280;62035;52.094;5.112;2023-05-11T12:09:47;101679.69;;;16.92;100.00
62031;BME280;62035;52.094;5.112;2023-05-11T12:12:18;101692.44;;;16.33;100.00
62031;BME280;62035;52.094;5.112;2023-05-11T12:14:47;101716.19;;;16.04;100.00
62031;BME280;62035;52.094;5.112;2023-05-11T12:17:22;101716.03;;;16.06;100.00
62031;BME280;62035;52.094;5.112;2023-05-11T12:19:52;101717.38;;;15.93;100.00
62031;BME280;62035;52.094;5.112;2023-05-11T12:22:21;101716.44;;;15.77;100.00
62031;BME280;62035;52.094;5.112;2023-05-11T12:24:49;101709.84;;;15.63;100.00
62031;BME280;62035;52.094;5.112;2023-05-11T12:27:17;101713.09;;;15.75;100.00
62031;BME280;62035;52.094;5.112;2023-05-11T12:29:48;101715.66;;;15.84;100.00
62031;BME280;62035;52.094;5.112;2023-05-11T12:32:25;101705.00;;;15.66;100.00
62031;BME280;62035;52.094;5.112;2023-05-11T12:35:00;101725.88;;;15.81;100.00
62031;BME280;62035;52.094;5.112;2023-05-11T12:37:30;101725.19;;;15.79;100.00
62031;BME280;62035;52.094;5.112;2023-05-11T12:39:58;101717.63;;;15.74;100.00
62031;BME280;62035;52.094;5.112;2023-05-11T12:42:26;101719.78;;;15.71;100.00
62031;BME280;62035;52.094;5.112;2023-05-11T12:44:54;101715.19;;;15.97;100.00
62031;BME280;62035;52.094;5.112;2023-05-11T12:47:22;101713.50;;;15.96;100.00
62031;BME280;62035;52.094;5.112;2023-05-11T12:49:51;101716.19;;;15.96;100.00
62031;BME280;62035;52.094;5.112;2023-05-11T12:52:22;101714.31;;;15.54;100.00
62031;BME280;62035;52.094;5.112;2023-05-11T12:54:50;101713.94;;;15.75;100.00
62031;BME280;62035;52.094;5.112;2023-05-11T12:57:23;101719.78;;;15.71;100.00
62031;BME280;62035;52.094;5.112;2023-05-11T13:00:05;101711.53;;;15.38;100.00
62031;BME280;62035;52.094;5.112;2023-05-11T13:02:42;101712.25;;;15.74;100.00
62031;BME280;62035;52.094;5.112;2023-05-11T13:05:12;101717.03;;;15.96;100.00